Time;durP1;ratioP1;P1;durP2;ratioP2;P2;SDS_P1;SDS_P2;PMS_P1;PMS_P2;Temp;Humidity;BMP_temperature;BMP_pressure;BME280_temperature;BME280_humidity;BME280_pressure;Samples;Min_cycle;Max_cycle;Signal;HPM_P1;HPM_P2
2022/10/20 00:00:11;;;;;;;27.17;17.63;;;;;;;10.62;100.00;93268.59;2131705;27;20026;-72
2022/10/20 00:01:14;;;;;;;28.80;17.92;;;;;;;10.63;100.00;93265.53;2131484;27;20030;-71
2022/10/20 00:02:15;;;;;;;24.33;18.48;;;;;;;10.72;100.00;93273.00;2131727;27;20110;-69
2022/10/20 00:03:17;;;;;;;23.73;18.15;;;;;;;10.79;100.00;93267.50;2131267;27;20091;-69
2022/10/20 00:04:18;;;;;;;31.25;19.33;;;;;;;10.77;100.00;93270.59;2130859;27;20083;-69
2022/10/20 00:05:19;;;;;;;26.65;18.92;;;;;;;10.80;100.00;93264.44;2131685;27;20079;-72
2022/10/20 00:06:23;;;;;;;33.83;20.05;;;;;;;10.77;100.00;93267.16;2131302;27;20457;-72
2022/10/20 00:07:24;;;;;;;29.70;19.38;;;;;;;10.73;100.00;93269.91;2131633;27;20067;-69
2022/10/20 00:08:25;;;;;;;26.98;19.73;;;;;;;10.74;100.00;93265.31;2131671;27;20067;-69
2022/10/20 00:09:26;;;;;;;27.30;20.40;;;;;;;10.78;100.00;93271.34;2131194;27;20019;-69
2022/10/20 00:10:27;;;;;;;26.15;19.58;;;;;;;10.80;100.00;93266.34;2131390;27;20531;-69
2022/10/20 00:11:29;;;;;;;29.83;20.40;;;;;;;10.93;100.00;93258.41;2131016;27;20031;-70
2022/10/20 00:12:30;;;;;;;30.13;18.90;;;;;;;10.91;100.00;93258.09;2131359;27;20019;-72
2022/10/20 00:13:31;;;;;;;27.70;18.25;;;;;;;10.84;100.00;93257.09;2122067;27;20525;-69
2022/10/20 00:14:32;;;;;;;23.45;19.38;;;;;;;10.91;100.00;93255.41;2122561;27;20049;-69
2022/10/20 00:15:33;;;;;;;26.83;18.60;;;;;;;10.85;100.00;93257.84;2117490;27;20579;-69
2022/10/20 00:16:36;;;;;;;28.90;20.40;;;;;;;10.88;100.00;93254.31;2121920;27;20047;-69
2022/10/20 00:17:37;;;;;;;28.45;19.08;;;;;;;10.93;100.00;93259.19;2123034;27;20083;-69
2022/10/20 00:18:38;;;;;;;26.45;20.13;;;;;;;11.02;100.00;93254.03;2123068;27;20430;-70
2022/10/20 00:19:39;;;;;;;29.45;19.42;;;;;;;11.02;100.00;93254.03;2122950;27;20035;-70
2022/10/20 00:20:40;;;;;;;31.35;19.60;;;;;;;10.96;100.00;93252.25;2122233;27;20465;-69
2022/10/20 00:21:41;;;;;;;26.60;19.38;;;;;;;11.05;100.00;93252.44;2122767;27;20102;-72
2022/10/20 00:22:42;;;;;;;28.90;19.50;;;;;;;11.12;100.00;93252.31;2123026;27;20049;-70
2022/10/20 00:23:43;;;;;;;27.70;21.02;;;;;;;11.02;100.00;93253.28;2122564;27;20027;-70
2022/10/20 00:24:44;;;;;;;25.80;20.00;;;;;;;11.07;100.00;93245.53;2122959;27;20027;-71
2022/10/20 00:25:45;;;;;;;26.42;19.17;;;;;;;11.00;100.00;93251.00;2121079;27;20469;-70
2022/10/20 00:26:46;;;;;;;27.98;20.27;;;;;;;11.02;100.00;93248.69;2119177;27;20051;-70
2022/10/20 00:27:47;;;;;;;28.33;19.52;;;;;;;11.05;100.00;93247.84;2122931;27;20034;-69
2022/10/20 00:28:50;;;;;;;30.52;19.90;;;;;;;10.98;100.00;93253.38;2122926;27;20023;-72
2022/10/20 00:29:51;;;;;;;32.80;20.70;;;;;;;10.92;100.00;93246.22;2122880;27;20384;-70
2022/10/20 00:30:55;;;;;;;29.17;20.45;;;;;;;10.98;100.00;93244.59;2121978;27;20015;-69
2022/10/20 00:31:56;;;;;;;28.48;20.27;;;;;;;11.00;100.00;93240.31;2122621;27;20027;-69
2022/10/20 00:32:57;;;;;;;27.58;20.27;;;;;;;11.00;100.00;93248.34;2122406;27;20035;-69
2022/10/20 00:33:58;;;;;;;28.77;19.98;;;;;;;11.12;100.00;93249.63;2122980;27;20031;-68
2022/10/20 00:34:59;;;;;;;29.73;20.52;;;;;;;11.08;100.00;93251.63;2122758;27;20118;-69
2022/10/20 00:36:06;;;;;;;28.63;21.35;;;;;;;11.07;100.00;93252.78;2122107;27;20075;-69
2022/10/20 00:37:07;;;;;;;31.88;19.60;;;;;;;11.07;100.00;93244.78;2114641;27;20051;-70
2022/10/20 00:38:08;;;;;;;28.90;19.75;;;;;;;10.95;100.00;93240.81;2122612;27;20026;-72
2022/10/20 00:39:09;;;;;;;30.63;20.90;;;;;;;10.98;100.00;93241.91;2122897;27;20027;-70
2022/10/20 00:40:10;;;;;;;29.50;20.88;;;;;;;10.94;100.00;93236.63;2122818;27;20112;-72
2022/10/20 00:41:15;;;;;;;29.45;20.83;;;;;;;10.87;100.00;93238.69;2121156;27;20019;-69
2022/10/20 00:42:18;;;;;;;31.08;21.50;;;;;;;10.83;100.00;93236.84;2114613;27;20023;-69
2022/10/20 00:43:19;;;;;;;33.50;22.00;;;;;;;10.78;100.00;93231.97;2113272;27;20031;-69
2022/10/20 00:44:48;;;;;;;35.65;22.38;;;;;;;10.74;100.00;93233.97;2122198;27;20027;-70
2022/10/20 00:45:53;;;;;;;32.78;21.98;;;;;;;10.71;100.00;93231.38;2121014;27;20034;-69
2022/10/20 00:46:56;;;;;;;34.53;21.50;;;;;;;10.72;100.00;93232.91;2121894;27;20023;-69
2022/10/20 00:48:06;;;;;;;33.13;21.67;;;;;;;10.79;100.00;93227.38;2122467;27;20023;-70
2022/10/20 00:49:16;;;;;;;32.65;22.90;;;;;;;10.76;100.00;93231.66;2119467;27;20380;-72
2022/10/20 00:50:31;;;;;;;34.55;21.42;;;;;;;10.90;100.00;93225.25;2122748;27;20023;-71
2022/10/20 00:51:33;;;;;;;31.60;20.90;;;;;;;10.98;100.00;93229.28;2117792;27;20031;-70
2022/10/20 00:52:35;;;;;;;33.45;21.55;;;;;;;10.87;100.00;93223.41;2122071;27;20027;-69
2022/10/20 00:53:36;;;;;;;34.90;21.63;;;;;;;10.82;100.00;93234.59;2121342;27;20389;-69
2022/10/20 00:54:37;;;;;;;39.88;23.40;;;;;;;10.78;100.00;93228.56;2122036;27;20019;-68
2022/10/20 00:55:41;;;;;;;37.63;24.08;;;;;;;10.80;100.00;93221.66;2122183;27;20465;-69
2022/10/20 00:56:45;;;;;;;35.85;23.75;;;;;;;10.92;100.00;93220.22;2122095;27;20038;-68
2022/10/20 00:57:50;;;;;;;33.30;21.77;;;;;;;10.86;100.00;93215.81;2122708;27;20063;-69
2022/10/20 00:58:51;;;;;;;33.70;21.95;;;;;;;10.96;100.00;93226.25;2122446;27;20022;-70
2022/10/20 00:59:53;;;;;;;33.95;23.75;;;;;;;10.91;100.00;93218.72;2122727;27;20154;-72
2022/10/20 01:00:57;;;;;;;31.42;22.95;;;;;;;11.04;100.00;93214.25;2122741;27;20107;-69
2022/10/20 01:01:59;;;;;;;32.78;21.77;;;;;;;10.88;100.00;93214.22;2121847;27;20127;-67
2022/10/20 01:03:01;;;;;;;35.50;22.52;;;;;;;10.85;100.00;93223.06;2122385;27;20019;-70
2022/10/20 01:04:02;;;;;;;33.30;22.13;;;;;;;10.90;100.00;93213.81;2118203;27;20027;-71
2022/10/20 01:05:05;;;;;;;31.45;22.00;;;;;;;10.83;100.00;93214.69;2122602;27;20031;-72
2022/10/20 01:06:05;;;;;;;32.45;21.75;;;;;;;10.80;100.00;93216.28;2122127;27;20156;-68
2022/10/20 01:07:06;;;;;;;33.75;22.38;;;;;;;10.87;100.00;93215.38;2122014;27;20100;-68
2022/10/20 01:08:07;;;;;;;33.75;22.35;;;;;;;10.88;100.00;93216.13;2121829;27;20471;-71
2022/10/20 01:09:08;;;;;;;31.58;21.48;;;;;;;10.88;100.00;93206.19;2121452;27;20798;-68
2022/10/20 01:10:11;;;;;;;31.52;22.73;;;;;;;10.88;100.00;93216.13;2121785;27;20026;-69
2022/10/20 01:11:31;;;;;;;30.17;22.58;;;;;;;10.89;100.00;93220.31;2122641;27;20031;-68
2022/10/20 01:12:46;;;;;;;31.63;21.52;;;;;;;10.82;100.00;93219.28;2118521;27;20166;-68
2022/10/20 01:14:06;;;;;;;31.10;21.50;;;;;;;10.87;100.00;93214.63;2120189;27;20102;-68
2022/10/20 01:15:16;;;;;;;34.92;21.30;;;;;;;11.01;100.00;93203.63;2119037;27;20110;-68
2022/10/20 01:16:43;;;;;;;31.40;20.60;;;;;;;10.97;100.00;93206.38;2126321;27;20102;-68
2022/10/20 01:17:53;;;;;;;32.45;21.73;;;;;;;10.99;100.00;93208.63;2099635;27;20119;-70
2022/10/20 01:18:54;;;;;;;29.55;20.73;;;;;;;10.92;100.00;93204.19;2130023;27;20022;-68
2022/10/20 01:20:07;;;;;;;36.47;22.55;;;;;;;10.87;100.00;93207.34;2130526;27;20764;-71
2022/10/20 01:21:31;;;;;;;32.95;21.02;;;;;;;10.98;100.00;93199.88;2127649;27;20025;-68
2022/10/20 01:23:02;;;;;;;30.95;20.80;;;;;;;11.00;100.00;93207.47;2087652;28;20139;-70
2022/10/20 01:24:05;;;;;;;34.95;21.13;;;;;;;11.00;100.00;93194.84;2130447;27;20429;-69
2022/10/20 01:25:18;;;;;;;32.08;20.92;;;;;;;10.90;100.00;93195.09;2130653;27;20034;-69
2022/10/20 01:26:46;;;;;;;33.78;20.50;;;;;;;10.94;100.00;93193.09;2130934;27;20552;-69
2022/10/20 01:27:54;;;;;;;31.55;22.02;;;;;;;10.88;100.00;93184.78;2130952;27;20083;-68
2022/10/20 01:28:59;;;;;;;31.45;21.27;;;;;;;10.82;100.00;93191.81;2130519;27;20148;-69
2022/10/20 01:30:08;;;;;;;37.00;21.30;;;;;;;10.89;100.00;93193.56;2130730;27;20050;-69
2022/10/20 01:31:27;;;;;;;30.35;21.85;;;;;;;10.88;100.00;93197.41;2127603;27;20067;-70
2022/10/20 01:32:40;;;;;;;31.20;20.83;;;;;;;10.92;100.00;93190.81;2130837;27;20124;-69
2022/10/20 01:33:52;;;;;;;34.10;21.95;;;;;;;10.92;100.00;93195.41;2127098;27;20429;-69
2022/10/20 01:35:04;;;;;;;32.55;22.38;;;;;;;11.02;100.00;93184.50;2130936;27;20066;-69
2022/10/20 01:36:32;;;;;;;31.98;22.23;;;;;;;11.02;100.00;93183.75;2126854;27;20034;-69
2022/10/20 01:37:44;;;;;;;32.00;21.20;;;;;;;11.03;100.00;93190.59;2126792;27;20821;-69
2022/10/20 01:38:55;;;;;;;36.88;22.10;;;;;;;10.99;100.00;93181.91;2130108;27;20027;-69
2022/10/20 01:40:05;;;;;;;32.75;21.38;;;;;;;10.97;100.00;93182.28;2130975;27;20030;-69
2022/10/20 01:41:14;;;;;;;31.50;22.02;;;;;;;11.04;100.00;93182.16;2126856;27;20034;-69
2022/10/20 01:42:23;;;;;;;35.95;22.55;;;;;;;11.07;100.00;93188.59;2130939;27;20031;-68
2022/10/20 01:43:28;;;;;;;32.13;21.08;;;;;;;10.99;100.00;93182.66;2121313;27;20030;-69
2022/10/20 01:44:31;;;;;;;33.63;21.80;;;;;;;10.99;100.00;93177.28;2122445;27;20023;-69
2022/10/20 01:45:35;;;;;;;33.53;23.48;;;;;;;11.03;100.00;93179.91;2130955;27;20458;-69
2022/10/20 01:46:39;;;;;;;32.60;22.23;;;;;;;10.96;100.00;93180.78;2126857;27;20026;-71
2022/10/20 01:47:42;;;;;;;33.00;22.42;;;;;;;10.95;100.00;93173.94;2121669;27;20024;-72
2022/10/20 01:48:45;;;;;;;28.55;20.98;;;;;;;11.02;100.00;93175.72;2122103;27;20026;-69
2022/10/20 01:49:47;;;;;;;30.67;22.52;;;;;;;11.01;100.00;93168.84;2130134;27;20063;-70
2022/10/20 01:50:49;;;;;;;38.40;22.10;;;;;;;11.00;100.00;93172.69;2130894;27;20357;-72
2022/10/20 01:51:51;;;;;;;35.63;22.42;;;;;;;10.89;100.00;93169.50;2130469;27;20053;-71
2022/10/20 01:52:56;;;;;;;35.83;22.35;;;;;;;10.91;100.00;93170.59;2130537;27;20659;-69
2022/10/20 01:53:58;;;;;;;32.10;21.80;;;;;;;10.86;100.00;93165.00;2130727;27;20083;-69
2022/10/20 01:54:59;;;;;;;34.80;22.35;;;;;;;10.90;100.00;93155.72;2130772;27;20152;-69
2022/10/20 01:56:01;;;;;;;31.48;23.25;;;;;;;10.85;100.00;93153.56;2130113;27;20018;-71
2022/10/20 01:57:14;;;;;;;38.95;24.52;;;;;;;11.00;100.00;93152.03;2130546;27;20054;-71
2022/10/20 01:58:41;;;;;;;31.05;22.67;;;;;;;11.02;100.00;93162.34;2123872;27;20062;-69
2022/10/20 02:00:07;;;;;;;40.13;22.67;;;;;;;10.92;100.00;93153.38;2127796;27;20050;-69
2022/10/20 02:01:28;;;;;;;32.67;21.45;;;;;;;10.89;100.00;93156.13;2129005;27;20109;-71
2022/10/20 02:02:41;;;;;;;34.30;22.95;;;;;;;10.89;100.00;93153.44;2130562;27;20029;-69
2022/10/20 02:04:03;;;;;;;34.33;23.23;;;;;;;10.82;100.00;93147.09;2127828;27;20027;-69
2022/10/20 02:05:28;;;;;;;35.17;21.95;;;;;;;10.91;100.00;93151.13;2126998;27;20026;-70
2022/10/20 02:06:47;;;;;;;32.78;22.10;;;;;;;10.88;100.00;93159.97;2126583;27;20023;-69
2022/10/20 02:07:49;;;;;;;31.90;21.77;;;;;;;10.88;100.00;93152.69;2128304;27;20109;-72
2022/10/20 02:08:57;;;;;;;32.33;21.33;;;;;;;10.90;100.00;93152.31;2130102;27;20038;-69
2022/10/20 02:10:26;;;;;;;30.98;22.08;;;;;;;10.90;100.00;93150.38;2130683;27;20030;-72
2022/10/20 02:11:29;;;;;;;29.25;21.15;;;;;;;10.99;100.00;93152.47;2129510;27;20031;-70
2022/10/20 02:12:38;;;;;;;28.15;20.45;;;;;;;10.99;100.00;93150.56;2130531;27;20019;-72
2022/10/20 02:13:41;;;;;;;31.00;22.98;;;;;;;11.05;100.00;93153.47;2127018;27;20160;-69
2022/10/20 02:14:44;;;;;;;31.17;22.05;;;;;;;10.92;100.00;93150.69;2130499;27;20043;-69
2022/10/20 02:15:50;;;;;;;31.83;21.70;;;;;;;10.94;100.00;93151.06;2130521;27;20031;-69
2022/10/20 02:16:57;;;;;;;31.92;22.25;;;;;;;11.00;100.00;93143.28;2113099;28;20103;-69
2022/10/20 02:18:02;;;;;;;31.25;21.42;;;;;;;10.96;100.00;93154.06;2113292;28;20024;-71
2022/10/20 02:19:06;;;;;;;30.10;21.40;;;;;;;11.00;100.00;93148.63;2105897;28;20024;-70
2022/10/20 02:20:09;;;;;;;33.72;22.17;;;;;;;11.04;100.00;93142.03;2113575;28;20616;-69
2022/10/20 02:21:10;;;;;;;33.83;22.70;;;;;;;10.92;100.00;93148.03;2113056;28;20016;-69
2022/10/20 02:22:13;;;;;;;29.05;23.00;;;;;;;10.90;100.00;93142.34;2110754;28;20509;-68
2022/10/20 02:23:15;;;;;;;28.92;21.02;;;;;;;10.86;100.00;93141.69;2112982;28;20023;-70
2022/10/20 02:24:18;;;;;;;33.72;21.23;;;;;;;10.90;100.00;93150.38;2113562;28;20076;-72
2022/10/20 02:25:20;;;;;;;34.38;22.38;;;;;;;10.95;100.00;93147.19;2113628;28;20111;-69
2022/10/20 02:26:24;;;;;;;32.38;22.40;;;;;;;10.93;100.00;93148.78;2112919;28;20028;-70
2022/10/20 02:27:36;;;;;;;35.33;22.05;;;;;;;11.00;100.00;93149.38;2111867;28;20437;-69
2022/10/20 02:28:39;;;;;;;30.13;21.92;;;;;;;10.91;100.00;93154.56;2108956;28;20102;-70
2022/10/20 02:29:47;;;;;;;29.25;22.10;;;;;;;10.87;100.00;93151.19;2113508;28;20357;-70
2022/10/20 02:30:49;;;;;;;34.10;21.80;;;;;;;10.91;100.00;93141.19;2113630;28;20110;-69
2022/10/20 02:31:50;;;;;;;27.17;21.38;;;;;;;10.91;100.00;93145.78;2112774;28;20024;-73
2022/10/20 02:32:51;;;;;;;32.25;22.13;;;;;;;10.96;100.00;93151.38;2113284;28;20047;-68
2022/10/20 02:33:55;;;;;;;36.20;22.77;;;;;;;10.90;100.00;93141.59;2103993;28;20086;-71
2022/10/20 02:34:56;;;;;;;31.58;23.10;;;;;;;10.92;100.00;93140.00;2105284;28;20063;-70
2022/10/20 02:35:58;;;;;;;29.75;22.02;;;;;;;10.89;100.00;93138.19;2121375;28;20031;-72
2022/10/20 02:36:59;;;;;;;37.05;22.52;;;;;;;10.96;100.00;93140.69;2113571;28;20111;-70
2022/10/20 02:38:00;;;;;;;32.95;22.23;;;;;;;10.97;100.00;93147.53;2113257;28;20035;-69
2022/10/20 02:39:01;;;;;;;31.13;21.98;;;;;;;10.93;100.00;93143.44;2113224;28;20028;-69
2022/10/20 02:40:03;;;;;;;33.08;22.63;;;;;;;10.96;100.00;93146.03;2105099;28;20028;-72
2022/10/20 02:41:04;;;;;;;31.70;22.27;;;;;;;10.99;100.00;93139.84;2113364;28;20028;-69
2022/10/20 02:42:05;;;;;;;35.13;23.17;;;;;;;10.92;100.00;93140.00;2113534;28;20051;-71
2022/10/20 02:43:06;;;;;;;30.08;21.98;;;;;;;10.87;100.00;93140.50;2112400;28;20494;-69
2022/10/20 02:44:07;;;;;;;35.13;22.48;;;;;;;10.81;100.00;93144.84;2113188;28;20027;-69
2022/10/20 02:45:10;;;;;;;31.75;21.80;;;;;;;10.87;100.00;93145.84;2113430;28;20059;-71
2022/10/20 02:46:11;;;;;;;34.13;22.33;;;;;;;10.90;100.00;93142.34;2113404;28;20036;-70
2022/10/20 02:47:12;;;;;;;31.83;22.88;;;;;;;10.82;100.00;93138.34;2113453;28;20030;-69
2022/10/20 02:48:13;;;;;;;36.03;23.75;;;;;;;10.89;100.00;93143.53;2109168;28;20028;-69
2022/10/20 02:49:14;;;;;;;32.38;22.27;;;;;;;10.91;100.00;93140.44;2113264;28;20051;-69
2022/10/20 02:50:16;;;;;;;34.28;22.70;;;;;;;11.01;100.00;93140.19;2113275;28;20039;-69
2022/10/20 02:51:17;;;;;;;32.35;22.50;;;;;;;10.99;100.00;93144.44;2113568;28;20028;-69
2022/10/20 02:52:18;;;;;;;32.25;22.10;;;;;;;10.92;100.00;93145.34;2113434;28;20030;-69
2022/10/20 02:53:19;;;;;;;30.60;21.73;;;;;;;10.90;100.00;93149.63;2112506;28;20070;-69
2022/10/20 02:54:20;;;;;;;34.60;22.63;;;;;;;10.89;100.00;93137.41;2113253;28;20032;-70
2022/10/20 02:55:21;;;;;;;29.58;21.98;;;;;;;10.89;100.00;93148.09;2113264;28;20059;-70
2022/10/20 02:56:22;;;;;;;30.88;22.85;;;;;;;10.88;100.00;93143.94;2113583;28;20028;-71
2022/10/20 02:57:23;;;;;;;29.75;22.58;;;;;;;11.05;100.00;93140.84;2113538;28;20389;-70
2022/10/20 02:58:24;;;;;;;32.60;21.73;;;;;;;10.90;100.00;93141.59;2108538;28;20024;-70
2022/10/20 02:59:25;;;;;;;33.35;23.58;;;;;;;10.91;100.00;93140.44;2111592;28;20482;-69
2022/10/20 03:00:30;;;;;;;33.58;23.35;;;;;;;10.90;100.00;93146.97;2113032;28;20032;-68
2022/10/20 03:01:31;;;;;;;31.35;22.45;;;;;;;10.85;100.00;93137.50;2113609;28;20036;-72
2022/10/20 03:02:32;;;;;;;33.22;23.77;;;;;;;10.87;100.00;93137.09;2113476;28;20022;-68
2022/10/20 03:03:34;;;;;;;33.50;21.88;;;;;;;10.84;100.00;93136.75;2112270;28;20793;-70
2022/10/20 03:04:35;;;;;;;29.77;22.02;;;;;;;10.98;100.00;93141.03;2113598;28;20035;-70
2022/10/20 03:05:40;;;;;;;33.13;23.52;;;;;;;11.01;100.00;93140.19;2113239;28;20703;-71
2022/10/20 03:06:41;;;;;;;35.08;23.58;;;;;;;10.93;100.00;93135.41;2113541;28;20044;-72
2022/10/20 03:07:42;;;;;;;31.73;22.35;;;;;;;10.87;100.00;93137.84;2113456;28;20458;-68
2022/10/20 03:08:43;;;;;;;33.83;22.88;;;;;;;10.86;100.00;93141.69;2112592;28;20126;-73
2022/10/20 03:09:44;;;;;;;33.38;22.52;;;;;;;10.94;100.00;93145.69;2113355;28;20107;-69
2022/10/20 03:10:45;;;;;;;32.47;20.88;;;;;;;11.00;100.00;93140.59;2114357;28;20038;-70
2022/10/20 03:11:46;;;;;;;35.45;21.38;;;;;;;11.03;100.00;93137.09;2115140;28;20072;-70
2022/10/20 03:12:47;;;;;;;30.63;22.02;;;;;;;10.90;100.00;93138.94;2115028;28;20049;-69
2022/10/20 03:13:48;;;;;;;34.75;21.92;;;;;;;10.97;100.00;93142.19;2112156;28;20020;-69
2022/10/20 03:14:49;;;;;;;31.92;22.33;;;;;;;11.03;100.00;93147.81;2112476;28;20031;-69
2022/10/20 03:15:50;;;;;;;31.48;22.17;;;;;;;10.96;100.00;93138.00;2105758;28;20462;-68
2022/10/20 03:16:51;;;;;;;31.15;22.30;;;;;;;10.92;100.00;93133.91;2122712;27;20032;-69
2022/10/20 03:17:52;;;;;;;31.50;21.90;;;;;;;10.98;100.00;93134.94;2123404;27;20115;-73
2022/10/20 03:18:53;;;;;;;28.90;21.38;;;;;;;10.99;100.00;93137.19;2122830;27;20031;-71
2022/10/20 03:19:54;;;;;;;29.83;20.92;;;;;;;10.93;100.00;93138.84;2123387;27;20030;-69
2022/10/20 03:20:55;;;;;;;30.95;22.38;;;;;;;10.94;100.00;93142.28;2123534;27;20034;-69
2022/10/20 03:21:56;;;;;;;28.13;20.40;;;;;;;10.96;100.00;93132.66;2122602;27;20034;-69
2022/10/20 03:22:57;;;;;;;29.15;21.45;;;;;;;11.08;100.00;93140.03;2122371;27;20502;-69
2022/10/20 03:23:58;;;;;;;32.40;21.73;;;;;;;11.01;100.00;93139.44;2122725;27;20395;-69
2022/10/20 03:24:59;;;;;;;28.10;20.45;;;;;;;11.08;100.00;93128.56;2122237;27;20034;-71
2022/10/20 03:26:05;;;;;;;28.05;21.02;;;;;;;11.02;100.00;93122.97;2122716;27;20063;-68
2022/10/20 03:27:06;;;;;;;29.48;21.00;;;;;;;11.08;100.00;93125.91;2116663;27;20034;-71
2022/10/20 03:28:07;;;;;;;33.08;21.60;;;;;;;10.99;100.00;93126.47;2123331;27;20550;-72
2022/10/20 03:29:08;;;;;;;32.70;22.70;;;;;;;11.02;100.00;93125.66;2122926;27;20361;-69
2022/10/20 03:30:09;;;;;;;30.35;21.40;;;;;;;10.95;100.00;93133.09;2123182;27;20088;-69
2022/10/20 03:31:10;;;;;;;33.95;21.88;;;;;;;10.90;100.00;93122.88;2123469;27;20457;-71
2022/10/20 03:32:11;;;;;;;28.20;21.40;;;;;;;10.96;100.00;93129.97;2123217;27;20453;-69
2022/10/20 03:33:12;;;;;;;31.48;21.45;;;;;;;10.95;100.00;93125.06;2123081;27;20030;-69
2022/10/20 03:34:13;;;;;;;28.63;21.92;;;;;;;10.93;100.00;93122.03;2123422;27;20072;-69
2022/10/20 03:35:14;;;;;;;30.15;20.77;;;;;;;10.84;100.00;93123.38;2122550;27;20064;-69
2022/10/20 03:36:15;;;;;;;35.10;22.55;;;;;;;10.88;100.00;93117.94;2123400;27;20034;-69
2022/10/20 03:37:16;;;;;;;27.90;22.20;;;;;;;10.93;100.00;93117.47;2123106;27;20605;-69
2022/10/20 03:38:17;;;;;;;31.75;22.02;;;;;;;10.80;100.00;93122.72;2123154;27;20023;-71
2022/10/20 03:39:18;;;;;;;33.20;22.20;;;;;;;10.85;100.00;93121.47;2123300;27;20054;-69
2022/10/20 03:40:19;;;;;;;35.05;22.77;;;;;;;10.81;100.00;93126.13;2122915;27;20034;-70
2022/10/20 03:41:20;;;;;;;33.42;22.58;;;;;;;10.82;100.00;93122.28;2123326;27;20038;-69
2022/10/20 03:42:21;;;;;;;35.65;23.85;;;;;;;10.86;100.00;93117.63;2123140;27;20023;-71
2022/10/20 03:43:22;;;;;;;33.67;22.90;;;;;;;10.85;100.00;93110.78;2123072;27;20102;-69
2022/10/20 03:44:23;;;;;;;34.40;22.70;;;;;;;10.92;100.00;93118.59;2123312;27;20035;-68
2022/10/20 03:45:24;;;;;;;31.45;22.25;;;;;;;10.98;100.00;93116.22;2122920;27;20110;-68
2022/10/20 03:46:25;;;;;;;31.67;22.27;;;;;;;10.86;100.00;93122.22;2122823;27;20039;-68
2022/10/20 03:47:26;;;;;;;35.00;22.30;;;;;;;10.84;100.00;93115.38;2122330;27;20068;-68
2022/10/20 03:48:27;;;;;;;34.20;22.23;;;;;;;10.87;100.00;93126.38;2123156;27;20030;-69
2022/10/20 03:49:28;;;;;;;35.65;21.88;;;;;;;10.93;100.00;93116.69;2123177;27;20427;-72
2022/10/20 03:50:29;;;;;;;32.22;22.48;;;;;;;10.94;100.00;93118.22;2122562;27;20398;-68
2022/10/20 03:51:30;;;;;;;32.83;22.38;;;;;;;10.89;100.00;93121.34;2123353;27;20121;-69
2022/10/20 03:52:31;;;;;;;29.88;21.90;;;;;;;10.81;100.00;93121.53;2123290;27;20068;-68
2022/10/20 03:53:32;;;;;;;36.28;22.45;;;;;;;10.87;100.00;93124.47;2122566;27;20019;-68
2022/10/20 03:54:34;;;;;;;31.17;21.35;;;;;;;10.99;100.00;93126.47;2118990;27;20839;-70
2022/10/20 03:55:36;;;;;;;27.33;21.08;;;;;;;11.02;100.00;93119.56;2122308;27;20368;-69
2022/10/20 03:56:37;;;;;;;30.45;21.48;;;;;;;10.97;100.00;93122.69;2123230;27;20064;-69
2022/10/20 03:57:38;;;;;;;30.90;22.02;;;;;;;11.02;100.00;93130.25;2122533;27;20035;-72
2022/10/20 03:58:39;;;;;;;32.75;21.98;;;;;;;10.99;100.00;93123.06;2122217;27;20033;-71
2022/10/20 03:59:40;;;;;;;30.65;22.30;;;;;;;10.92;100.00;93115.19;2123062;27;20015;-69
2022/10/20 04:00:41;;;;;;;28.00;21.17;;;;;;;10.95;100.00;93120.47;2122462;27;20068;-69
2022/10/20 04:01:44;;;;;;;29.55;21.88;;;;;;;11.00;100.00;93119.94;2123340;27;20027;-71
2022/10/20 04:02:46;;;;;;;34.17;20.88;;;;;;;10.96;100.00;93132.66;2123362;27;20449;-69
2022/10/20 04:03:47;;;;;;;31.83;22.33;;;;;;;10.88;100.00;93130.56;2122593;27;20019;-69
2022/10/20 04:04:48;;;;;;;27.65;20.75;;;;;;;10.89;100.00;93118.69;2122359;27;20468;-69
2022/10/20 04:05:49;;;;;;;33.88;22.25;;;;;;;10.82;100.00;93127.63;2121971;27;20050;-69
2022/10/20 04:06:50;;;;;;;34.00;22.00;;;;;;;10.91;100.00;93127.06;2123075;27;20027;-71
2022/10/20 04:07:51;;;;;;;28.60;21.55;;;;;;;10.98;100.00;93124.22;2123235;27;20027;-69
2022/10/20 04:08:52;;;;;;;28.25;21.00;;;;;;;10.96;100.00;93115.84;2122803;27;20057;-71
2022/10/20 04:09:54;;;;;;;34.97;22.27;;;;;;;10.98;100.00;93118.88;2122423;27;20378;-71
2022/10/20 04:10:56;;;;;;;31.65;21.65;;;;;;;10.92;100.00;93112.50;2122595;27;20113;-70
2022/10/20 04:11:57;;;;;;;32.17;22.23;;;;;;;10.80;100.00;93112.03;2122785;27;20453;-70
2022/10/20 04:13:00;;;;;;;32.03;22.88;;;;;;;10.88;100.00;93109.91;2122651;27;20106;-69
2022/10/20 04:14:01;;;;;;;28.27;20.80;;;;;;;10.86;100.00;93119.53;2122929;27;20130;-71
2022/10/20 04:15:03;;;;;;;31.40;21.10;;;;;;;10.87;100.00;93111.09;2122599;27;20403;-71
2022/10/20 04:16:05;;;;;;;26.73;21.25;;;;;;;10.95;100.00;93115.09;2119451;27;20027;-69
2022/10/20 04:17:05;;;;;;;34.72;21.85;;;;;;;10.96;100.00;93111.25;2131654;27;20026;-72
2022/10/20 04:18:06;;;;;;;33.10;22.13;;;;;;;10.92;100.00;93118.59;2131364;27;20058;-72
2022/10/20 04:19:07;;;;;;;29.90;21.38;;;;;;;10.91;100.00;93113.69;2131433;27;20022;-71
2022/10/20 04:20:09;;;;;;;30.58;22.20;;;;;;;10.96;100.00;93115.84;2131395;27;20026;-71
2022/10/20 04:21:10;;;;;;;27.80;21.42;;;;;;;10.86;100.00;93104.25;2131339;27;20031;-70
2022/10/20 04:22:11;;;;;;;27.70;20.75;;;;;;;10.88;100.00;93109.16;2127974;27;20062;-70
2022/10/20 04:23:11;;;;;;;31.13;22.10;;;;;;;10.83;100.00;93103.16;2131044;27;20103;-71
2022/10/20 04:24:12;;;;;;;30.10;22.08;;;;;;;10.87;100.00;93103.06;2131553;27;20023;-71
2022/10/20 04:25:13;;;;;;;33.08;22.30;;;;;;;10.81;100.00;93102.06;2130931;27;20026;-69
2022/10/20 04:26:15;;;;;;;27.20;21.00;;;;;;;10.94;100.00;93100.25;2122315;27;20038;-70
2022/10/20 04:27:16;;;;;;;32.67;21.25;;;;;;;10.85;100.00;93110.78;2118834;27;20039;-69
2022/10/20 04:28:19;;;;;;;27.63;20.77;;;;;;;10.87;100.00;93105.00;2131566;27;20464;-69
2022/10/20 04:29:20;;;;;;;31.50;20.95;;;;;;;10.82;100.00;93098.22;2131315;27;20026;-70
2022/10/20 04:30:21;;;;;;;27.73;20.50;;;;;;;10.88;100.00;93101.13;2122060;27;20532;-70
2022/10/20 04:31:22;;;;;;;29.70;19.58;;;;;;;10.76;100.00;93095.31;2122410;27;20050;-69
2022/10/20 04:32:23;;;;;;;27.27;20.60;;;;;;;10.79;100.00;93089.09;2130737;27;20035;-69
2022/10/20 04:33:24;;;;;;;27.77;20.67;;;;;;;10.77;100.00;93093.38;2131177;27;20057;-72
2022/10/20 04:34:25;;;;;;;26.30;19.38;;;;;;;10.73;100.00;93098.06;2131505;27;20304;-71
2022/10/20 04:35:26;;;;;;;26.50;20.05;;;;;;;10.93;100.00;93097.97;2131232;27;20126;-69
2022/10/20 04:36:27;;;;;;;26.65;19.55;;;;;;;10.97;100.00;93090.63;2131346;27;20061;-72
2022/10/20 04:37:28;;;;;;;26.13;19.52;;;;;;;10.85;100.00;93094.72;2130677;27;20031;-70
2022/10/20 04:38:29;;;;;;;28.80;20.20;;;;;;;10.84;100.00;93093.97;2131265;27;20505;-71
2022/10/20 04:39:30;;;;;;;24.77;19.52;;;;;;;10.82;100.00;93100.91;2131002;27;20481;-72
2022/10/20 04:40:31;;;;;;;25.67;19.73;;;;;;;10.78;100.00;93097.56;2130921;27;20367;-73
2022/10/20 04:41:32;;;;;;;30.85;20.70;;;;;;;10.67;100.00;93094.34;2127033;27;20030;-70
2022/10/20 04:42:33;;;;;;;27.17;20.90;;;;;;;10.67;100.00;93086.34;2130726;27;20816;-70
2022/10/20 04:43:34;;;;;;;31.92;20.48;;;;;;;10.74;100.00;93083.50;2121668;27;20019;-70
2022/10/20 04:44:35;;;;;;;30.85;20.80;;;;;;;10.66;100.00;93077.56;2122281;27;20030;-68
2022/10/20 04:45:36;;;;;;;26.83;19.25;;;;;;;10.79;100.00;93080.34;2131280;27;20033;-70
2022/10/20 04:46:37;;;;;;;25.40;19.73;;;;;;;10.74;100.00;93081.59;2131057;27;20058;-71
2022/10/20 04:47:39;;;;;;;27.27;19.25;;;;;;;10.79;100.00;93075.72;2131344;27;20031;-69
2022/10/20 04:48:43;;;;;;;28.65;21.27;;;;;;;10.78;100.00;93084.19;2130755;27;20054;-73
2022/10/20 04:49:44;;;;;;;29.45;20.65;;;;;;;10.82;100.00;93079.50;2131089;27;20033;-70